sensor_id;sensor_type;location;lat;lon;timestamp;P1;durP1;ratioP1;P2;durP2;ratioP2
51010;SDS011;37038;50.182;8.624;2023-04-25T00:00:48;34.47;;;20.35;;
51010;SDS011;37038;50.182;8.624;2023-04-25T00:03:36;28.05;;;20.05;;
51010;SDS011;37038;50.182;8.624;2023-04-25T00:06:29;32.17;;;20.73;;
51010;SDS011;37038;50.182;8.624;2023-04-25T00:09:21;26.20;;;19.95;;
51010;SDS011;37038;50.182;8.624;2023-04-25T00:12:16;24.73;;;19.55;;
51010;SDS011;37038;50.182;8.624;2023-04-25T00:15:23;27.17;;;19.00;;
51010;SDS011;37038;50.182;8.624;2023-04-25T00:18:25;22.88;;;17.70;;
51010;SDS011;37038;50.182;8.624;2023-04-25T00:21:19;20.38;;;15.35;;
51010;SDS011;37038;50.182;8.624;2023-04-25T00:24:39;22.58;;;17.65;;
51010;SDS011;37038;50.182;8.624;2023-04-25T00:30:55;22.45;;;17.25;;
51010;SDS011;37038;50.182;8.624;2023-04-25T00:34:16;25.85;;;19.30;;
51010;SDS011;37038;50.182;8.624;2023-04-25T00:37:32;27.77;;;20.05;;
51010;SDS011;37038;50.182;8.624;2023-04-25T00:40:50;27.92;;;19.00;;
51010;SDS011;37038;50.182;8.624;2023-04-25T00:47:45;27.67;;;20.23;;
51010;SDS011;37038;50.182;8.624;2023-04-25T00:50:35;35.45;;;22.98;;
51010;SDS011;37038;50.182;8.624;2023-04-25T00:53:44;26.05;;;20.23;;
51010;SDS011;37038;50.182;8.624;2023-04-25T00:56:37;25.60;;;18.40;;
51010;SDS011;37038;50.182;8.624;2023-04-25T00:59:39;25.25;;;17.25;;
51010;SDS011;37038;50.182;8.624;2023-04-25T01:02:50;22.35;;;17.65;;
51010;SDS011;37038;50.182;8.624;2023-04-25T01:05:54;22.10;;;17.88;;
51010;SDS011;37038;50.182;8.624;2023-04-25T01:09:00;26.65;;;18.90;;
51010;SDS011;37038;50.182;8.624;2023-04-25T01:11:57;23.50;;;18.27;;
51010;SDS011;37038;50.182;8.624;2023-04-25T01:15:26;25.33;;;18.10;;
51010;SDS011;37038;50.182;8.624;2023-04-25T01:18:54;19.75;;;14.98;;
51010;SDS011;37038;50.182;8.624;2023-04-25T01:22:19;17.75;;;14.25;;
51010;SDS011;37038;50.182;8.624;2023-04-25T01:28:57;18.77;;;14.13;;
51010;SDS011;37038;50.182;8.624;2023-04-25T01:32:10;16.38;;;13.38;;
51010;SDS011;37038;50.182;8.624;2023-04-25T01:35:14;16.58;;;10.55;;
51010;SDS011;37038;50.182;8.624;2023-04-25T01:38:37;12.65;;;9.75;;
51010;SDS011;37038;50.182;8.624;2023-04-25T01:42:18;14.45;;;9.55;;
51010;SDS011;37038;50.182;8.624;2023-04-25T01:49:33;15.93;;;10.55;;
51010;SDS011;37038;50.182;8.624;2023-04-25T01:52:54;16.55;;;11.65;;
51010;SDS011;37038;50.182;8.624;2023-04-25T01:56:15;14.98;;;11.80;;
51010;SDS011;37038;50.182;8.624;2023-04-25T02:06:20;17.33;;;13.80;;
51010;SDS011;37038;50.182;8.624;2023-04-25T02:09:41;17.08;;;13.05;;
51010;SDS011;37038;50.182;8.624;2023-04-25T02:13:00;24.05;;;14.93;;
51010;SDS011;37038;50.182;8.624;2023-04-25T02:19:19;15.57;;;12.27;;
51010;SDS011;37038;50.182;8.624;2023-04-25T02:22:26;16.58;;;11.45;;
51010;SDS011;37038;50.182;8.624;2023-04-25T02:29:05;14.80;;;12.23;;
51010;SDS011;37038;50.182;8.624;2023-04-25T02:32:01;15.70;;;12.43;;
51010;SDS011;37038;50.182;8.624;2023-04-25T02:34:55;16.73;;;13.40;;
51010;SDS011;37038;50.182;8.624;2023-04-25T02:38:18;16.75;;;14.50;;
51010;SDS011;37038;50.182;8.624;2023-04-25T02:44:54;16.92;;;14.05;;
51010;SDS011;37038;50.182;8.624;2023-04-25T02:48:11;16.98;;;15.18;;
51010;SDS011;37038;50.182;8.624;2023-04-25T02:51:13;23.45;;;15.27;;
51010;SDS011;37038;50.182;8.624;2023-04-25T02:54:15;23.00;;;17.38;;
51010;SDS011;37038;50.182;8.624;2023-04-25T03:00:28;20.25;;;14.55;;
51010;SDS011;37038;50.182;8.624;2023-04-25T03:03:36;17.48;;;14.75;;
51010;SDS011;37038;50.182;8.624;2023-04-25T03:07:00;32.65;;;15.70;;
51010;SDS011;37038;50.182;8.624;2023-04-25T03:10:11;19.75;;;15.88;;
51010;SDS011;37038;50.182;8.624;2023-04-25T03:13:13;22.10;;;15.63;;
51010;SDS011;37038;50.182;8.624;2023-04-25T03:16:17;16.85;;;14.20;;
51010;SDS011;37038;50.182;8.624;2023-04-25T03:19:19;21.45;;;17.38;;
51010;SDS011;37038;50.182;8.624;2023-04-25T03:25:28;20.50;;;16.63;;
51010;SDS011;37038;50.182;8.624;2023-04-25T03:32:08;24.73;;;15.77;;
51010;SDS011;37038;50.182;8.624;2023-04-25T03:35:08;17.50;;;15.63;;
51010;SDS011;37038;50.182;8.624;2023-04-25T03:38:19;20.20;;;15.48;;
51010;SDS011;37038;50.182;8.624;2023-04-25T03:45:19;19.10;;;15.73;;
51010;SDS011;37038;50.182;8.624;2023-04-25T03:48:32;21.60;;;16.70;;
51010;SDS011;37038;50.182;8.624;2023-04-25T03:51:34;13.10;;;8.75;;
51010;SDS011;37038;50.182;8.624;2023-04-25T03:54:59;16.58;;;9.10;;
51010;SDS011;37038;50.182;8.624;2023-04-25T03:58:02;13.70;;;9.40;;
51010;SDS011;37038;50.182;8.624;2023-04-25T04:01:12;18.95;;;12.30;;
51010;SDS011;37038;50.182;8.624;2023-04-25T04:04:40;19.25;;;12.35;;
51010;SDS011;37038;50.182;8.624;2023-04-25T04:07:42;19.45;;;13.40;;
51010;SDS011;37038;50.182;8.624;2023-04-25T04:10:34;19.73;;;11.95;;
51010;SDS011;37038;50.182;8.624;2023-04-25T04:13:48;15.93;;;11.18;;
51010;SDS011;37038;50.182;8.624;2023-04-25T04:16:55;19.58;;;9.55;;
51010;SDS011;37038;50.182;8.624;2023-04-25T04:24:22;21.85;;;11.07;;
51010;SDS011;37038;50.182;8.624;2023-04-25T04:28:25;20.13;;;10.18;;
51010;SDS011;37038;50.182;8.624;2023-04-25T04:39:07;23.73;;;13.00;;
51010;SDS011;37038;50.182;8.624;2023-04-25T04:42:20;27.27;;;13.07;;
51010;SDS011;37038;50.182;8.624;2023-04-25T04:46:22;21.98;;;11.95;;
51010;SDS011;37038;50.182;8.624;2023-04-25T04:53:43;24.08;;;12.95;;
51010;SDS011;37038;50.182;8.624;2023-04-25T04:56:41;23.77;;;13.60;;
51010;SDS011;37038;50.182;8.624;2023-04-25T05:00:07;26.75;;;11.80;;
51010;SDS011;37038;50.182;8.624;2023-04-25T05:03:39;19.35;;;12.43;;
51010;SDS011;37038;50.182;8.624;2023-04-25T05:06:27;29.17;;;12.88;;
51010;SDS011;37038;50.182;8.624;2023-04-25T05:09:16;18.42;;;11.18;;
51010;SDS011;37038;50.182;8.624;2023-04-25T05:12:06;17.42;;;9.13;;
51010;SDS011;37038;50.182;8.624;2023-04-25T05:14:54;14.57;;;9.63;;
51010;SDS011;37038;50.182;8.624;2023-04-25T05:17:44;20.27;;;9.68;;
51010;SDS011;37038;50.182;8.624;2023-04-25T05:20:45;16.92;;;10.23;;
51010;SDS011;37038;50.182;8.624;2023-04-25T05:23:38;20.30;;;10.23;;
51010;SDS011;37038;50.182;8.624;2023-04-25T05:26:33;17.83;;;8.82;;
51010;SDS011;37038;50.182;8.624;2023-04-25T05:29:36;19.65;;;9.13;;
51010;SDS011;37038;50.182;8.624;2023-04-25T05:32:34;14.95;;;7.35;;
51010;SDS011;37038;50.182;8.624;2023-04-25T05:35:27;16.50;;;7.63;;
51010;SDS011;37038;50.182;8.624;2023-04-25T05:38:18;12.75;;;8.00;;
51010;SDS011;37038;50.182;8.624;2023-04-25T05:41:23;13.32;;;8.27;;
51010;SDS011;37038;50.182;8.624;2023-04-25T05:44:37;18.10;;;9.05;;
51010;SDS011;37038;50.182;8.624;2023-04-25T05:47:44;14.68;;;7.97;;
51010;SDS011;37038;50.182;8.624;2023-04-25T05:50:35;13.27;;;7.30;;
51010;SDS011;37038;50.182;8.624;2023-04-25T05:53:31;9.82;;;6.30;;
51010;SDS011;37038;50.182;8.624;2023-04-25T05:56:29;11.27;;;7.40;;
51010;SDS011;37038;50.182;8.624;2023-04-25T05:59:27;8.85;;;7.25;;
51010;SDS011;37038;50.182;8.624;2023-04-25T06:02:22;15.73;;;7.15;;
51010;SDS011;37038;50.182;8.624;2023-04-25T06:05:19;14.52;;;7.70;;
51010;SDS011;37038;50.182;8.624;2023-04-25T06:08:08;12.68;;;7.85;;
51010;SDS011;37038;50.182;8.624;2023-04-25T06:10:57;10.85;;;5.13;;
51010;SDS011;37038;50.182;8.624;2023-04-25T06:13:46;10.70;;;5.38;;
51010;SDS011;37038;50.182;8.624;2023-04-25T06:16:41;7.18;;;4.43;;
51010;SDS011;37038;50.182;8.624;2023-04-25T06:19:35;8.38;;;5.00;;
51010;SDS011;37038;50.182;8.624;2023-04-25T06:22:39;10.50;;;4.72;;
51010;SDS011;37038;50.182;8.624;2023-04-25T06:25:31;10.68;;;4.65;;
51010;SDS011;37038;50.182;8.624;2023-04-25T06:28:21;10.50;;;5.10;;
51010;SDS011;37038;50.182;8.624;2023-04-25T06:31:12;7.97;;;4.50;;
51010;SDS011;37038;50.182;8.624;2023-04-25T06:34:06;11.60;;;5.50;;
51010;SDS011;37038;50.182;8.624;2023-04-25T06:36:56;7.63;;;4.80;;
51010;SDS011;37038;50.182;8.624;2023-04-25T06:39:50;6.82;;;4.38;;
51010;SDS011;37038;50.182;8.624;2023-04-25T06:42:43;10.45;;;4.30;;
51010;SDS011;37038;50.182;8.624;2023-04-25T06:46:00;8.73;;;4.65;;
51010;SDS011;37038;50.182;8.624;2023-04-25T06:48:55;8.23;;;6.20;;
51010;SDS011;37038;50.182;8.624;2023-04-25T06:51:48;7.78;;;4.85;;
51010;SDS011;37038;50.182;8.624;2023-04-25T06:54:46;8.55;;;4.47;;
51010;SDS011;37038;50.182;8.624;2023-04-25T06:57:34;5.28;;;3.65;;
51010;SDS011;37038;50.182;8.624;2023-04-25T07:00:25;7.88;;;3.65;;
51010;SDS011;37038;50.182;8.624;2023-04-25T07:03:15;4.93;;;3.75;;
51010;SDS011;37038;50.182;8.624;2023-04-25T07:06:03;7.25;;;3.92;;
51010;SDS011;37038;50.182;8.624;2023-04-25T07:08:51;6.15;;;3.60;;
51010;SDS011;37038;50.182;8.624;2023-04-25T07:11:39;8.88;;;4.50;;
51010;SDS011;37038;50.182;8.624;2023-04-25T07:14:27;8.48;;;5.13;;
51010;SDS011;37038;50.182;8.624;2023-04-25T07:17:15;9.05;;;5.45;;
51010;SDS011;37038;50.182;8.624;2023-04-25T07:20:04;8.95;;;5.60;;
51010;SDS011;37038;50.182;8.624;2023-04-25T07:22:53;7.93;;;5.65;;
51010;SDS011;37038;50.182;8.624;2023-04-25T07:25:42;6.57;;;4.70;;
51010;SDS011;37038;50.182;8.624;2023-04-25T07:31:36;8.30;;;5.15;;
51010;SDS011;37038;50.182;8.624;2023-04-25T07:34:27;7.32;;;4.45;;
51010;SDS011;37038;50.182;8.624;2023-04-25T07:37:39;6.18;;;4.35;;
51010;SDS011;37038;50.182;8.624;2023-04-25T07:40:49;6.07;;;3.90;;
51010;SDS011;37038;50.182;8.624;2023-04-25T07:46:51;7.35;;;3.90;;
51010;SDS011;37038;50.182;8.624;2023-04-25T07:53:34;8.93;;;4.72;;
51010;SDS011;37038;50.182;8.624;2023-04-25T08:10:15;9.90;;;5.53;;
51010;SDS011;37038;50.182;8.624;2023-04-25T08:13:13;9.38;;;4.95;;
51010;SDS011;37038;50.182;8.624;2023-04-25T08:16:13;6.90;;;4.30;;
51010;SDS011;37038;50.182;8.624;2023-04-25T08:19:09;5.50;;;4.25;;
51010;SDS011;37038;50.182;8.624;2023-04-25T08:22:08;9.60;;;4.90;;
51010;SDS011;37038;50.182;8.624;2023-04-25T08:24:59;7.30;;;4.50;;
51010;SDS011;37038;50.182;8.624;2023-04-25T08:28:02;6.43;;;4.47;;
51010;SDS011;37038;50.182;8.624;2023-04-25T08:31:12;8.32;;;5.43;;
51010;SDS011;37038;50.182;8.624;2023-04-25T08:34:34;6.72;;;4.65;;
51010;SDS011;37038;50.182;8.624;2023-04-25T08:37:47;10.07;;;5.95;;
51010;SDS011;37038;50.182;8.624;2023-04-25T08:40:43;9.65;;;5.25;;
51010;SDS011;37038;50.182;8.624;2023-04-25T08:43:42;7.68;;;5.65;;
51010;SDS011;37038;50.182;8.624;2023-04-25T08:46:50;7.30;;;5.53;;
51010;SDS011;37038;50.182;8.624;2023-04-25T08:50:36;5.82;;;5.22;;
51010;SDS011;37038;50.182;8.624;2023-04-25T08:54:18;7.78;;;5.13;;
51010;SDS011;37038;50.182;8.624;2023-04-25T08:57:24;8.32;;;5.18;;
51010;SDS011;37038;50.182;8.624;2023-04-25T09:00:16;8.50;;;5.57;;
51010;SDS011;37038;50.182;8.624;2023-04-25T09:03:12;7.22;;;5.82;;
51010;SDS011;37038;50.182;8.624;2023-04-25T09:06:01;7.25;;;5.43;;
51010;SDS011;37038;50.182;8.624;2023-04-25T09:09:15;9.38;;;5.75;;
51010;SDS011;37038;50.182;8.624;2023-04-25T09:12:19;8.45;;;6.07;;
51010;SDS011;37038;50.182;8.624;2023-04-25T09:15:13;9.52;;;5.65;;
51010;SDS011;37038;50.182;8.624;2023-04-25T09:18:31;7.77;;;5.67;;
51010;SDS011;37038;50.182;8.624;2023-04-25T09:21:51;8.60;;;6.15;;
51010;SDS011;37038;50.182;8.624;2023-04-25T09:24:44;7.53;;;5.03;;
51010;SDS011;37038;50.182;8.624;2023-04-25T09:27:57;8.38;;;5.38;;
51010;SDS011;37038;50.182;8.624;2023-04-25T09:30:59;6.13;;;4.93;;
51010;SDS011;37038;50.182;8.624;2023-04-25T09:34:02;7.00;;;4.57;;
51010;SDS011;37038;50.182;8.624;2023-04-25T09:36:51;7.90;;;5.70;;
51010;SDS011;37038;50.182;8.624;2023-04-25T09:39:44;7.25;;;4.78;;
51010;SDS011;37038;50.182;8.624;2023-04-25T09:42:34;7.95;;;5.15;;
51010;SDS011;37038;50.182;8.624;2023-04-25T09:45:22;8.43;;;5.05;;
51010;SDS011;37038;50.182;8.624;2023-04-25T09:51:37;8.60;;;5.18;;
51010;SDS011;37038;50.182;8.624;2023-04-25T09:54:45;9.25;;;4.80;;
51010;SDS011;37038;50.182;8.624;2023-04-25T09:57:33;6.97;;;5.90;;
51010;SDS011;37038;50.182;8.624;2023-04-25T10:00:28;8.50;;;5.38;;
51010;SDS011;37038;50.182;8.624;2023-04-25T10:03:17;11.10;;;5.57;;
51010;SDS011;37038;50.182;8.624;2023-04-25T10:06:19;8.98;;;5.63;;
51010;SDS011;37038;50.182;8.624;2023-04-25T10:09:08;9.27;;;6.13;;
51010;SDS011;37038;50.182;8.624;2023-04-25T10:11:56;6.22;;;5.55;;
51010;SDS011;37038;50.182;8.624;2023-04-25T10:14:45;9.35;;;5.95;;
51010;SDS011;37038;50.182;8.624;2023-04-25T10:17:34;11.43;;;6.60;;
51010;SDS011;37038;50.182;8.624;2023-04-25T10:20:22;9.23;;;6.70;;
51010;SDS011;37038;50.182;8.624;2023-04-25T10:23:18;10.50;;;7.10;;
51010;SDS011;37038;50.182;8.624;2023-04-25T10:26:07;10.50;;;7.10;;
51010;SDS011;37038;50.182;8.624;2023-04-25T10:29:00;11.35;;;6.80;;
51010;SDS011;37038;50.182;8.624;2023-04-25T10:31:51;11.15;;;6.45;;
51010;SDS011;37038;50.182;8.624;2023-04-25T10:34:40;9.63;;;5.85;;
51010;SDS011;37038;50.182;8.624;2023-04-25T10:37:34;6.95;;;6.25;;
51010;SDS011;37038;50.182;8.624;2023-04-25T10:40:25;9.23;;;6.43;;
51010;SDS011;37038;50.182;8.624;2023-04-25T10:46:31;11.65;;;7.00;;
51010;SDS011;37038;50.182;8.624;2023-04-25T10:49:32;10.95;;;6.47;;
51010;SDS011;37038;50.182;8.624;2023-04-25T10:52:25;9.00;;;6.15;;
51010;SDS011;37038;50.182;8.624;2023-04-25T10:55:15;8.38;;;5.95;;
51010;SDS011;37038;50.182;8.624;2023-04-25T10:58:02;9.10;;;5.43;;
51010;SDS011;37038;50.182;8.624;2023-04-25T11:00:50;10.90;;;5.55;;
51010;SDS011;37038;50.182;8.624;2023-04-25T11:03:43;5.85;;;5.13;;
51010;SDS011;37038;50.182;8.624;2023-04-25T11:09:20;10.82;;;5.30;;
51010;SDS011;37038;50.182;8.624;2023-04-25T11:12:11;6.80;;;5.10;;
51010;SDS011;37038;50.182;8.624;2023-04-25T11:15:00;7.35;;;4.45;;
51010;SDS011;37038;50.182;8.624;2023-04-25T11:17:51;10.68;;;4.65;;
51010;SDS011;37038;50.182;8.624;2023-04-25T11:20:40;7.53;;;4.10;;
51010;SDS011;37038;50.182;8.624;2023-04-25T11:23:30;7.95;;;3.67;;
51010;SDS011;37038;50.182;8.624;2023-04-25T11:26:19;6.88;;;4.47;;
51010;SDS011;37038;50.182;8.624;2023-04-25T11:29:07;7.25;;;3.95;;
51010;SDS011;37038;50.182;8.624;2023-04-25T11:31:55;6.20;;;3.30;;
51010;SDS011;37038;50.182;8.624;2023-04-25T11:34:48;9.88;;;4.07;;
51010;SDS011;37038;50.182;8.624;2023-04-25T11:37:41;6.00;;;3.40;;
51010;SDS011;37038;50.182;8.624;2023-04-25T11:40:30;6.25;;;3.75;;
51010;SDS011;37038;50.182;8.624;2023-04-25T11:43:25;5.53;;;3.30;;
51010;SDS011;37038;50.182;8.624;2023-04-25T11:46:13;9.40;;;4.45;;
51010;SDS011;37038;50.182;8.624;2023-04-25T11:49:03;7.95;;;4.32;;
51010;SDS011;37038;50.182;8.624;2023-04-25T11:51:52;8.88;;;4.22;;
51010;SDS011;37038;50.182;8.624;2023-04-25T11:54:40;7.13;;;3.78;;
51010;SDS011;37038;50.182;8.624;2023-04-25T11:57:28;7.53;;;4.00;;
51010;SDS011;37038;50.182;8.624;2023-04-25T12:00:22;8.55;;;4.38;;
51010;SDS011;37038;50.182;8.624;2023-04-25T12:03:13;9.75;;;4.43;;
51010;SDS011;37038;50.182;8.624;2023-04-25T12:06:11;8.68;;;4.15;;
51010;SDS011;37038;50.182;8.624;2023-04-25T12:09:11;7.70;;;3.97;;
51010;SDS011;37038;50.182;8.624;2023-04-25T12:12:02;8.13;;;4.10;;
51010;SDS011;37038;50.182;8.624;2023-04-25T12:14:54;10.90;;;4.90;;
51010;SDS011;37038;50.182;8.624;2023-04-25T12:17:46;10.85;;;4.80;;
51010;SDS011;37038;50.182;8.624;2023-04-25T12:20:44;7.05;;;5.03;;
51010;SDS011;37038;50.182;8.624;2023-04-25T12:23:38;7.07;;;4.68;;
51010;SDS011;37038;50.182;8.624;2023-04-25T12:29:49;13.20;;;5.65;;
51010;SDS011;37038;50.182;8.624;2023-04-25T12:32:50;10.95;;;5.10;;
51010;SDS011;37038;50.182;8.624;2023-04-25T12:35:38;7.60;;;4.50;;
51010;SDS011;37038;50.182;8.624;2023-04-25T12:38:28;10.85;;;4.28;;
51010;SDS011;37038;50.182;8.624;2023-04-25T12:41:18;8.60;;;4.53;;
51010;SDS011;37038;50.182;8.624;2023-04-25T12:44:05;9.77;;;5.07;;
51010;SDS011;37038;50.182;8.624;2023-04-25T12:46:53;5.43;;;4.03;;
51010;SDS011;37038;50.182;8.624;2023-04-25T12:49:42;5.75;;;3.78;;
51010;SDS011;37038;50.182;8.624;2023-04-25T12:52:35;6.20;;;3.70;;
51010;SDS011;37038;50.182;8.624;2023-04-25T12:55:26;6.35;;;3.83;;
51010;SDS011;37038;50.182;8.624;2023-04-25T12:58:14;6.47;;;3.95;;
51010;SDS011;37038;50.182;8.624;2023-04-25T13:01:08;8.18;;;4.05;;
51010;SDS011;37038;50.182;8.624;2023-04-25T13:04:05;7.95;;;4.05;;
51010;SDS011;37038;50.182;8.624;2023-04-25T13:06:53;5.88;;;4.38;;
51010;SDS011;37038;50.182;8.624;2023-04-25T13:09:58;7.22;;;4.20;;
51010;SDS011;37038;50.182;8.624;2023-04-25T13:12:46;9.43;;;4.78;;
51010;SDS011;37038;50.182;8.624;2023-04-25T13:15:34;7.50;;;4.57;;
51010;SDS011;37038;50.182;8.624;2023-04-25T13:18:24;9.90;;;4.47;;
51010;SDS011;37038;50.182;8.624;2023-04-25T13:21:15;10.77;;;5.13;;
51010;SDS011;37038;50.182;8.624;2023-04-25T13:24:07;10.73;;;4.35;;
51010;SDS011;37038;50.182;8.624;2023-04-25T13:26:58;8.23;;;4.25;;
51010;SDS011;37038;50.182;8.624;2023-04-25T13:29:46;8.88;;;4.45;;
51010;SDS011;37038;50.182;8.624;2023-04-25T13:32:34;6.22;;;3.60;;
51010;SDS011;37038;50.182;8.624;2023-04-25T13:35:25;8.57;;;4.45;;
51010;SDS011;37038;50.182;8.624;2023-04-25T13:38:15;7.30;;;4.68;;
51010;SDS011;37038;50.182;8.624;2023-04-25T13:41:03;8.18;;;4.32;;
51010;SDS011;37038;50.182;8.624;2023-04-25T13:43:50;6.22;;;4.35;;
51010;SDS011;37038;50.182;8.624;2023-04-25T13:46:39;7.80;;;4.70;;
51010;SDS011;37038;50.182;8.624;2023-04-25T13:49:33;9.63;;;4.35;;
51010;SDS011;37038;50.182;8.624;2023-04-25T13:52:22;8.43;;;3.33;;
51010;SDS011;37038;50.182;8.624;2023-04-25T13:58:15;10.35;;;4.00;;
51010;SDS011;37038;50.182;8.624;2023-04-25T14:01:19;9.07;;;4.03;;
51010;SDS011;37038;50.182;8.624;2023-04-25T14:04:12;6.95;;;3.50;;
51010;SDS011;37038;50.182;8.624;2023-04-25T14:07:03;9.50;;;3.67;;
51010;SDS011;37038;50.182;8.624;2023-04-25T14:10:07;6.20;;;3.55;;
51010;SDS011;37038;50.182;8.624;2023-04-25T14:13:00;5.95;;;3.42;;
51010;SDS011;37038;50.182;8.624;2023-04-25T14:15:50;8.82;;;3.50;;
51010;SDS011;37038;50.182;8.624;2023-04-25T14:18:39;6.53;;;3.33;;
51010;SDS011;37038;50.182;8.624;2023-04-25T14:21:29;6.10;;;3.47;;
51010;SDS011;37038;50.182;8.624;2023-04-25T14:24:19;13.48;;;3.60;;
51010;SDS011;37038;50.182;8.624;2023-04-25T14:27:07;5.40;;;3.17;;
51010;SDS011;37038;50.182;8.624;2023-04-25T14:29:56;5.38;;;3.08;;
51010;SDS011;37038;50.182;8.624;2023-04-25T14:32:53;5.90;;;2.90;;
51010;SDS011;37038;50.182;8.624;2023-04-25T14:36:02;7.00;;;3.38;;
51010;SDS011;37038;50.182;8.624;2023-04-25T14:38:50;5.88;;;2.95;;
51010;SDS011;37038;50.182;8.624;2023-04-25T14:41:38;5.45;;;3.08;;
51010;SDS011;37038;50.182;8.624;2023-04-25T14:44:28;12.32;;;3.72;;
51010;SDS011;37038;50.182;8.624;2023-04-25T14:47:16;6.65;;;3.08;;
51010;SDS011;37038;50.182;8.624;2023-04-25T14:50:09;5.78;;;3.28;;
51010;SDS011;37038;50.182;8.624;2023-04-25T14:53:02;10.15;;;3.60;;
51010;SDS011;37038;50.182;8.624;2023-04-25T14:55:50;8.40;;;3.70;;
51010;SDS011;37038;50.182;8.624;2023-04-25T14:58:38;5.60;;;3.05;;
51010;SDS011;37038;50.182;8.624;2023-04-25T15:01:27;7.35;;;2.90;;
51010;SDS011;37038;50.182;8.624;2023-04-25T15:04:15;7.53;;;3.10;;
51010;SDS011;37038;50.182;8.624;2023-04-25T15:07:06;5.70;;;2.70;;
51010;SDS011;37038;50.182;8.624;2023-04-25T15:09:53;3.80;;;2.28;;
51010;SDS011;37038;50.182;8.624;2023-04-25T15:12:42;8.35;;;2.35;;
51010;SDS011;37038;50.182;8.624;2023-04-25T15:15:33;4.10;;;2.60;;
51010;SDS011;37038;50.182;8.624;2023-04-25T15:18:22;7.28;;;3.10;;
51010;SDS011;37038;50.182;8.624;2023-04-25T15:21:11;6.80;;;3.17;;
51010;SDS011;37038;50.182;8.624;2023-04-25T15:24:04;8.48;;;3.45;;
51010;SDS011;37038;50.182;8.624;2023-04-25T15:26:53;5.88;;;3.00;;
51010;SDS011;37038;50.182;8.624;2023-04-25T15:29:43;5.70;;;2.70;;
51010;SDS011;37038;50.182;8.624;2023-04-25T15:32:40;7.47;;;3.08;;
51010;SDS011;37038;50.182;8.624;2023-04-25T15:35:35;4.53;;;2.97;;
51010;SDS011;37038;50.182;8.624;2023-04-25T15:38:28;4.65;;;2.20;;
51010;SDS011;37038;50.182;8.624;2023-04-25T15:41:18;5.07;;;2.35;;
51010;SDS011;37038;50.182;8.624;2023-04-25T15:44:06;6.65;;;2.47;;
51010;SDS011;37038;50.182;8.624;2023-04-25T15:46:57;8.10;;;2.80;;
51010;SDS011;37038;50.182;8.624;2023-04-25T15:49:45;6.20;;;2.63;;
51010;SDS011;37038;50.182;8.624;2023-04-25T15:52:38;8.60;;;2.80;;
51010;SDS011;37038;50.182;8.624;2023-04-25T15:55:27;7.38;;;2.80;;
51010;SDS011;37038;50.182;8.624;2023-04-25T15:58:15;7.95;;;3.15;;
51010;SDS011;37038;50.182;8.624;2023-04-25T16:01:03;7.40;;;3.28;;
51010;SDS011;37038;50.182;8.624;2023-04-25T16:03:51;6.80;;;3.13;;
51010;SDS011;37038;50.182;8.624;2023-04-25T16:06:40;6.45;;;2.60;;
51010;SDS011;37038;50.182;8.624;2023-04-25T16:09:28;8.52;;;2.72;;
51010;SDS011;37038;50.182;8.624;2023-04-25T16:12:18;4.40;;;2.40;;
51010;SDS011;37038;50.182;8.624;2023-04-25T16:15:07;9.30;;;3.17;;
51010;SDS011;37038;50.182;8.624;2023-04-25T16:17:55;5.60;;;2.70;;
51010;SDS011;37038;50.182;8.624;2023-04-25T16:20:43;6.63;;;2.90;;
51010;SDS011;37038;50.182;8.624;2023-04-25T16:23:31;9.70;;;3.45;;
51010;SDS011;37038;50.182;8.624;2023-04-25T16:26:22;12.20;;;2.85;;
51010;SDS011;37038;50.182;8.624;2023-04-25T16:29:10;5.20;;;2.38;;
51010;SDS011;37038;50.182;8.624;2023-04-25T16:32:02;7.65;;;3.00;;
51010;SDS011;37038;50.182;8.624;2023-04-25T16:34:50;8.43;;;2.78;;
51010;SDS011;37038;50.182;8.624;2023-04-25T16:37:41;5.50;;;2.67;;
51010;SDS011;37038;50.182;8.624;2023-04-25T16:40:28;5.25;;;2.45;;
51010;SDS011;37038;50.182;8.624;2023-04-25T16:43:17;4.78;;;2.95;;
51010;SDS011;37038;50.182;8.624;2023-04-25T16:46:06;6.80;;;2.58;;
51010;SDS011;37038;50.182;8.624;2023-04-25T16:48:54;8.82;;;2.63;;
51010;SDS011;37038;50.182;8.624;2023-04-25T16:51:45;9.77;;;3.50;;
51010;SDS011;37038;50.182;8.624;2023-04-25T16:54:33;8.18;;;2.90;;
51010;SDS011;37038;50.182;8.624;2023-04-25T16:57:22;8.00;;;2.80;;
51010;SDS011;37038;50.182;8.624;2023-04-25T17:00:10;5.57;;;2.35;;
51010;SDS011;37038;50.182;8.624;2023-04-25T17:02:59;8.65;;;3.10;;
51010;SDS011;37038;50.182;8.624;2023-04-25T17:05:54;5.03;;;2.55;;
51010;SDS011;37038;50.182;8.624;2023-04-25T17:08:50;8.27;;;2.80;;
51010;SDS011;37038;50.182;8.624;2023-04-25T17:11:48;7.93;;;2.97;;
51010;SDS011;37038;50.182;8.624;2023-04-25T17:14:38;10.70;;;3.83;;
51010;SDS011;37038;50.182;8.624;2023-04-25T17:17:27;8.23;;;3.20;;
51010;SDS011;37038;50.182;8.624;2023-04-25T17:20:15;11.52;;;3.08;;
51010;SDS011;37038;50.182;8.624;2023-04-25T17:23:05;8.82;;;2.92;;
51010;SDS011;37038;50.182;8.624;2023-04-25T17:25:52;8.27;;;2.83;;
51010;SDS011;37038;50.182;8.624;2023-04-25T17:28:40;8.13;;;2.95;;
51010;SDS011;37038;50.182;8.624;2023-04-25T17:31:31;5.45;;;2.70;;
51010;SDS011;37038;50.182;8.624;2023-04-25T17:34:19;7.50;;;2.97;;
51010;SDS011;37038;50.182;8.624;2023-04-25T17:37:10;8.07;;;3.13;;
51010;SDS011;37038;50.182;8.624;2023-04-25T17:40:05;8.02;;;2.55;;
51010;SDS011;37038;50.182;8.624;2023-04-25T17:42:59;6.95;;;2.42;;
51010;SDS011;37038;50.182;8.624;2023-04-25T17:45:47;6.45;;;3.30;;
51010;SDS011;37038;50.182;8.624;2023-04-25T17:48:39;5.28;;;3.00;;
51010;SDS011;37038;50.182;8.624;2023-04-25T17:51:28;7.45;;;3.38;;
51010;SDS011;37038;50.182;8.624;2023-04-25T17:54:17;6.32;;;2.88;;
51010;SDS011;37038;50.182;8.624;2023-04-25T17:57:08;6.50;;;3.00;;
51010;SDS011;37038;50.182;8.624;2023-04-25T17:59:56;7.70;;;2.53;;
51010;SDS011;37038;50.182;8.624;2023-04-25T18:02:43;11.60;;;3.22;;
51010;SDS011;37038;50.182;8.624;2023-04-25T18:05:33;7.72;;;3.08;;
51010;SDS011;37038;50.182;8.624;2023-04-25T18:08:22;9.10;;;3.05;;
51010;SDS011;37038;50.182;8.624;2023-04-25T18:11:10;10.52;;;2.92;;
51010;SDS011;37038;50.182;8.624;2023-04-25T18:13:58;7.68;;;2.97;;
51010;SDS011;37038;50.182;8.624;2023-04-25T18:16:50;6.78;;;2.50;;
51010;SDS011;37038;50.182;8.624;2023-04-25T18:19:40;8.68;;;2.90;;
51010;SDS011;37038;50.182;8.624;2023-04-25T18:22:28;7.53;;;2.70;;
51010;SDS011;37038;50.182;8.624;2023-04-25T18:25:16;7.00;;;3.00;;
51010;SDS011;37038;50.182;8.624;2023-04-25T18:28:05;5.47;;;2.35;;
51010;SDS011;37038;50.182;8.624;2023-04-25T18:30:54;10.85;;;3.67;;
51010;SDS011;37038;50.182;8.624;2023-04-25T18:33:43;6.50;;;2.97;;
51010;SDS011;37038;50.182;8.624;2023-04-25T18:36:36;8.43;;;3.05;;
51010;SDS011;37038;50.182;8.624;2023-04-25T18:39:27;12.48;;;3.58;;
51010;SDS011;37038;50.182;8.624;2023-04-25T18:42:18;6.38;;;2.80;;
51010;SDS011;37038;50.182;8.624;2023-04-25T18:45:07;8.48;;;3.50;;
51010;SDS011;37038;50.182;8.624;2023-04-25T18:47:56;7.38;;;3.63;;
51010;SDS011;37038;50.182;8.624;2023-04-25T18:50:46;6.68;;;3.30;;
51010;SDS011;37038;50.182;8.624;2023-04-25T18:53:34;9.40;;;3.13;;
51010;SDS011;37038;50.182;8.624;2023-04-25T18:56:23;9.63;;;3.30;;
51010;SDS011;37038;50.182;8.624;2023-04-25T18:59:50;9.68;;;3.88;;
51010;SDS011;37038;50.182;8.624;2023-04-25T19:03:06;9.10;;;3.53;;
51010;SDS011;37038;50.182;8.624;2023-04-25T19:06:47;6.10;;;2.90;;
51010;SDS011;37038;50.182;8.624;2023-04-25T19:14:03;4.80;;;2.72;;
51010;SDS011;37038;50.182;8.624;2023-04-25T19:17:08;8.65;;;3.92;;
51010;SDS011;37038;50.182;8.624;2023-04-25T19:20:14;7.50;;;3.50;;
51010;SDS011;37038;50.182;8.624;2023-04-25T19:23:09;5.75;;;2.90;;